createdAt,value
2023-02-01T00:02:21.529Z,6.77
2023-02-01T00:07:23.485Z,5.57
2023-02-01T00:12:25.424Z,6.37
2023-02-01T00:17:27.459Z,6.67
2023-02-01T00:22:31.699Z,6.17
2023-02-01T00:27:33.612Z,6.37
2023-02-01T00:32:36.329Z,5.43
2023-02-01T00:37:38.294Z,5.60
2023-02-01T00:42:40.382Z,5.63
2023-02-01T00:47:42.372Z,6.30
2023-02-01T00:52:44.197Z,6.67
2023-02-01T00:57:46.203Z,5.50
2023-02-01T01:02:48.091Z,5.43
2023-02-01T01:07:50.172Z,6.00
2023-02-01T01:12:52.439Z,4.93
2023-02-01T01:17:56.702Z,4.47
2023-02-01T01:22:58.501Z,4.40
2023-02-01T01:28:00.599Z,4.13
2023-02-01T01:33:02.806Z,3.97
2023-02-01T01:38:04.885Z,3.60
2023-02-01T01:43:14.996Z,3.53
2023-02-01T01:48:22.099Z,4.20
2023-02-01T01:53:29.269Z,4.00
2023-02-01T01:58:34.345Z,4.07
2023-02-01T02:03:41.991Z,3.70
2023-02-01T02:08:44.029Z,4.33
2023-02-01T02:13:50.074Z,4.17
2023-02-01T02:19:16.897Z,3.80
2023-02-01T02:24:44.654Z,2.87
2023-02-01T02:30:08.255Z,3.50
2023-02-01T02:35:24.344Z,2.93
2023-02-01T02:40:33.805Z,2.73
2023-02-01T02:46:03.930Z,2.63
2023-02-01T02:51:29.442Z,3.43
2023-02-01T02:56:51.125Z,3.53
2023-02-01T03:02:12.214Z,3.57
2023-02-01T03:07:36.299Z,2.97
2023-02-01T03:12:57.432Z,3.03
2023-02-01T03:18:05.372Z,2.87
2023-02-01T03:23:07.802Z,4.20
2023-02-01T03:28:11.379Z,3.50
2023-02-01T03:33:22.842Z,3.00
2023-02-01T03:38:49.767Z,2.40
2023-02-01T03:44:05.186Z,3.20
2023-02-01T03:49:11.536Z,2.57
2023-02-01T03:54:16.847Z,3.13
2023-02-01T03:59:19.405Z,3.10
2023-02-01T04:04:21.463Z,2.80
2023-02-01T04:09:27.601Z,2.90
2023-02-01T04:14:29.407Z,3.33
2023-02-01T04:19:31.316Z,4.07
2023-02-01T04:24:33.274Z,2.73
2023-02-01T04:29:35.218Z,3.57
2023-02-01T04:34:39.520Z,3.20
2023-02-01T04:39:41.465Z,2.93
2023-02-01T04:44:43.879Z,3.40
2023-02-01T04:49:45.717Z,3.33
2023-02-01T04:54:47.691Z,2.87
2023-02-01T04:59:49.704Z,2.33
2023-02-01T05:04:51.770Z,3.37
2023-02-01T05:09:53.874Z,3.13
2023-02-01T05:14:55.783Z,2.33
2023-02-01T05:19:57.953Z,4.00
2023-02-01T05:24:59.777Z,3.73
2023-02-01T05:30:01.711Z,2.63
2023-02-01T05:35:03.977Z,4.67
2023-02-01T05:40:06.426Z,3.80
2023-02-01T05:45:09.016Z,2.83
2023-02-01T05:50:11.262Z,3.97
2023-02-01T05:55:13.072Z,3.90
2023-02-01T06:00:15.153Z,3.20
2023-02-01T06:05:20.947Z,2.83
2023-02-01T06:10:23.262Z,3.60
2023-02-01T06:15:26.245Z,3.03
2023-02-01T06:20:28.162Z,2.67
2023-02-01T06:25:30.309Z,3.73
2023-02-01T06:30:32.914Z,2.70
2023-02-01T06:35:34.789Z,3.17
2023-02-01T06:40:37.078Z,3.13
2023-02-01T06:45:39.562Z,2.87
2023-02-01T06:50:41.672Z,2.73
2023-02-01T06:55:54.564Z,3.13
2023-02-01T07:00:56.691Z,3.80
2023-02-01T07:06:01.603Z,3.37
2023-02-01T07:11:14.795Z,3.63
2023-02-01T07:16:20.150Z,2.90
2023-02-01T07:21:22.390Z,2.57
2023-02-01T07:26:24.298Z,3.37
2023-02-01T07:31:27.471Z,3.03
2023-02-01T07:36:29.597Z,2.90
2023-02-01T07:41:31.449Z,3.13
2023-02-01T07:46:33.320Z,2.77
2023-02-01T07:51:35.177Z,2.87
2023-02-01T07:56:37.309Z,2.53
2023-02-01T08:01:39.335Z,2.90
2023-02-01T08:06:41.445Z,3.27
2023-02-01T08:11:43.401Z,3.30
2023-02-01T08:16:45.327Z,3.80
2023-02-01T08:21:49.723Z,4.43
2023-02-01T08:26:51.753Z,3.70
2023-02-01T08:31:55.177Z,3.20
2023-02-01T08:37:00.919Z,3.07
2023-02-01T08:42:21.444Z,4.47
2023-02-01T08:47:23.689Z,4.23
2023-02-01T08:52:25.678Z,3.13
2023-02-01T08:57:27.563Z,3.03
2023-02-01T09:02:29.694Z,3.67
2023-02-01T09:07:31.973Z,3.87
2023-02-01T09:12:34.973Z,3.40
2023-02-01T09:17:37.066Z,3.30
2023-02-01T09:22:39.364Z,3.40
2023-02-01T09:27:41.185Z,3.23
2023-02-01T09:32:43.140Z,2.83
2023-02-01T09:37:44.987Z,3.53
2023-02-01T09:43:08.475Z,3.03
2023-02-01T09:48:18.601Z,2.90
2023-02-01T09:53:41.333Z,2.80
2023-02-01T09:58:48.831Z,2.93
2023-02-01T10:03:56.494Z,3.00
2023-02-01T10:09:07.602Z,3.30
2023-02-01T10:14:29.362Z,3.23
2023-02-01T10:20:00.383Z,3.67
2023-02-01T10:25:42.667Z,2.87
2023-02-01T10:30:47.931Z,3.13
2023-02-01T10:35:59.584Z,3.17
2023-02-01T10:41:14.587Z,3.63
2023-02-01T10:46:17.367Z,3.90
2023-02-01T10:51:29.420Z,2.90
2023-02-01T10:56:32.403Z,2.80
2023-02-01T11:01:43.124Z,2.40
2023-02-01T11:07:06.317Z,2.50
2023-02-01T11:12:26.465Z,2.17
2023-02-01T11:17:43.010Z,2.70
2023-02-01T11:23:03.638Z,2.37
2023-02-01T11:28:06.149Z,2.37
2023-02-01T11:33:13.878Z,2.67
2023-02-01T11:38:18.680Z,2.30
2023-02-01T11:43:26.138Z,2.20
2023-02-01T11:48:33.532Z,2.30
2023-02-01T11:54:07.644Z,2.00
2023-02-01T11:59:27.046Z,2.53
2023-02-01T12:04:56.102Z,2.23
2023-02-01T12:10:23.173Z,2.10
2023-02-01T12:15:30.308Z,3.07
2023-02-01T12:21:03.652Z,2.60
2023-02-01T12:26:42.179Z,3.03
2023-02-01T12:32:03.938Z,2.13
2023-02-01T12:37:33.121Z,2.13
2023-02-01T12:42:59.331Z,1.77
2023-02-01T12:48:20.111Z,1.90
2023-02-01T12:53:46.404Z,1.77
2023-02-01T12:58:55.722Z,1.57
2023-02-01T13:04:08.563Z,1.50
2023-02-01T13:09:27.736Z,1.60
2023-02-01T13:15:05.810Z,1.80
2023-02-01T13:20:20.953Z,1.40
2023-02-01T13:25:36.985Z,1.40
2023-02-01T13:30:55.483Z,1.60
2023-02-01T13:36:32.723Z,1.87
2023-02-01T13:41:54.297Z,1.60
2023-02-01T13:46:59.901Z,1.83
2023-02-01T13:52:02.199Z,2.07
2023-02-01T13:57:06.080Z,1.03
2023-02-01T14:02:39.243Z,1.87
2023-02-01T14:08:02.864Z,1.67
2023-02-01T14:13:24.573Z,2.10
2023-02-01T14:18:38.855Z,1.80
2023-02-01T14:23:43.609Z,1.77
2023-02-01T14:29:20.872Z,1.23
2023-02-01T14:34:32.004Z,1.60
2023-02-01T14:39:48.998Z,1.83
2023-02-01T14:44:58.788Z,1.97
2023-02-01T14:50:14.373Z,2.23
2023-02-01T14:55:25.027Z,1.90
2023-02-01T15:00:30.869Z,1.60
2023-02-01T15:05:34.966Z,2.37
2023-02-01T15:10:44.256Z,2.40
2023-02-01T15:15:46.157Z,1.83
2023-02-01T15:21:10.166Z,1.93
2023-02-01T15:26:29.006Z,1.80
2023-02-01T15:31:36.438Z,2.60
2023-02-01T15:36:39.074Z,1.93
2023-02-01T15:41:42.512Z,2.13
2023-02-01T15:46:48.065Z,2.30
2023-02-01T15:51:50.686Z,2.10
2023-02-01T15:56:55.379Z,1.77
2023-02-01T16:01:57.581Z,1.90
2023-02-01T16:07:05.520Z,2.40
2023-02-01T16:12:34.963Z,2.33
2023-02-01T16:17:36.953Z,2.50
2023-02-01T16:22:38.993Z,2.47
2023-02-01T16:27:41.022Z,2.73
2023-02-01T16:32:43.142Z,2.97
2023-02-01T16:37:45.066Z,1.90
2023-02-01T16:42:50.759Z,2.07
2023-02-01T16:47:55.945Z,2.30
2023-02-01T16:52:57.964Z,2.90
2023-02-01T16:57:59.895Z,2.83
2023-02-01T17:03:01.696Z,2.53
2023-02-01T17:08:07.516Z,2.67
2023-02-01T17:13:14.016Z,2.90
2023-02-01T17:18:17.589Z,2.77
2023-02-01T17:23:20.580Z,2.70
2023-02-01T17:28:23.382Z,2.50
2023-02-01T17:33:35.856Z,2.70
2023-02-01T17:38:38.174Z,2.63
2023-02-01T17:43:41.322Z,2.97
2023-02-01T17:48:43.360Z,2.70
2023-02-01T17:53:46.523Z,2.93
2023-02-01T17:58:49.126Z,2.60
2023-02-01T18:03:52.126Z,2.63
2023-02-01T18:08:55.424Z,2.73
2023-02-01T18:13:57.478Z,3.20
2023-02-01T18:19:01.831Z,2.57
2023-02-01T18:24:04.528Z,3.40
2023-02-01T18:29:06.530Z,3.20
2023-02-01T18:34:10.698Z,2.93
2023-02-01T18:39:12.544Z,2.80
2023-02-01T18:44:15.675Z,2.77
2023-02-01T18:49:18.787Z,3.40
2023-02-01T18:54:20.809Z,2.67
2023-02-01T18:59:22.774Z,3.73
2023-02-01T19:04:25.235Z,3.40
2023-02-01T19:09:29.209Z,2.70
2023-02-01T19:14:31.230Z,3.10
2023-02-01T19:19:33.079Z,3.03
2023-02-01T19:24:34.924Z,2.83
2023-02-01T19:29:40.777Z,3.17
2023-02-01T19:34:42.665Z,3.20
2023-02-01T19:39:44.534Z,3.97
2023-02-01T19:44:46.807Z,3.70
2023-02-01T19:49:48.960Z,4.23
2023-02-01T19:54:50.961Z,4.17
2023-02-01T19:59:52.809Z,3.30
2023-02-01T20:04:53.978Z,3.43
2023-02-01T20:09:55.942Z,3.93
2023-02-01T20:14:58.022Z,3.60
2023-02-01T20:19:59.992Z,3.13
2023-02-01T20:25:04.930Z,3.57
2023-02-01T20:30:08.528Z,3.17
2023-02-01T20:35:10.577Z,3.67
2023-02-01T20:40:13.154Z,4.17
2023-02-01T20:45:15.378Z,3.20
2023-02-01T20:50:17.767Z,3.07
2023-02-01T20:55:19.640Z,4.07
2023-02-01T21:00:24.788Z,3.13
2023-02-01T21:05:40.129Z,4.90
2023-02-01T21:10:42.077Z,3.63
2023-02-01T21:15:44.106Z,4.03
2023-02-01T21:20:47.243Z,3.27
2023-02-01T21:25:49.351Z,3.90
2023-02-01T21:30:51.198Z,4.07
2023-02-01T21:35:53.233Z,5.00
2023-02-01T21:41:13.705Z,3.67
2023-02-01T21:46:15.684Z,3.63
2023-02-01T21:51:18.876Z,3.70
2023-02-01T21:56:20.711Z,4.20
2023-02-01T22:01:23.031Z,4.27
2023-02-01T22:06:48.622Z,3.60
2023-02-01T22:11:52.093Z,3.30
2023-02-01T22:16:54.103Z,3.43
2023-02-01T22:21:55.945Z,3.80
2023-02-01T22:27:14.071Z,4.17
2023-02-01T22:32:16.959Z,3.40
2023-02-01T22:37:18.940Z,2.60
2023-02-01T22:42:20.889Z,2.93
2023-02-01T22:47:22.647Z,3.33
2023-02-01T22:52:24.431Z,2.60
2023-02-01T22:57:26.311Z,2.80
2023-02-01T23:02:28.304Z,3.47
2023-02-01T23:07:30.311Z,4.07
2023-02-01T23:12:32.088Z,3.80
2023-02-01T23:17:37.468Z,3.27
2023-02-01T23:22:39.467Z,3.10
2023-02-01T23:27:42.014Z,3.00
2023-02-01T23:32:44.099Z,2.83
2023-02-01T23:37:45.979Z,3.50
2023-02-01T23:43:07.889Z,2.30
2023-02-01T23:48:09.846Z,3.03
2023-02-01T23:53:11.670Z,2.90
2023-02-01T23:58:13.491Z,2.87
